sensor_id;sensor_type;location;lat;lon;timestamp;P1;durP1;ratioP1;P2;durP2;ratioP2
20093;SDS011;10206;48.012;10.030;2023-09-19T00:01:39;2.53;;;2.15;;
20093;SDS011;10206;48.012;10.030;2023-09-19T00:04:07;4.95;;;2.05;;
20093;SDS011;10206;48.012;10.030;2023-09-19T00:06:35;3.38;;;2.00;;
20093;SDS011;10206;48.012;10.030;2023-09-19T00:09:02;5.15;;;1.90;;
20093;SDS011;10206;48.012;10.030;2023-09-19T00:11:28;3.00;;;2.05;;
20093;SDS011;10206;48.012;10.030;2023-09-19T00:13:54;3.93;;;2.10;;
20093;SDS011;10206;48.012;10.030;2023-09-19T00:16:24;3.45;;;2.10;;
20093;SDS011;10206;48.012;10.030;2023-09-19T00:18:51;4.93;;;2.60;;
20093;SDS011;10206;48.012;10.030;2023-09-19T00:21:17;3.88;;;2.45;;
20093;SDS011;10206;48.012;10.030;2023-09-19T00:23:47;2.17;;;2.00;;
20093;SDS011;10206;48.012;10.030;2023-09-19T00:26:14;2.77;;;2.17;;
20093;SDS011;10206;48.012;10.030;2023-09-19T00:28:40;5.40;;;2.33;;
20093;SDS011;10206;48.012;10.030;2023-09-19T00:31:07;5.35;;;2.22;;
20093;SDS011;10206;48.012;10.030;2023-09-19T00:33:34;2.28;;;1.98;;
20093;SDS011;10206;48.012;10.030;2023-09-19T00:36:01;2.33;;;1.95;;
20093;SDS011;10206;48.012;10.030;2023-09-19T00:38:30;7.87;;;2.70;;
20093;SDS011;10206;48.012;10.030;2023-09-19T00:40:57;3.55;;;2.13;;
20093;SDS011;10206;48.012;10.030;2023-09-19T00:43:24;2.30;;;2.10;;
20093;SDS011;10206;48.012;10.030;2023-09-19T00:45:53;4.57;;;2.27;;
20093;SDS011;10206;48.012;10.030;2023-09-19T00:48:21;2.60;;;1.88;;
20093;SDS011;10206;48.012;10.030;2023-09-19T00:50:48;2.05;;;1.90;;
20093;SDS011;10206;48.012;10.030;2023-09-19T00:53:17;4.15;;;2.13;;
20093;SDS011;10206;48.012;10.030;2023-09-19T00:55:45;3.35;;;1.83;;
20093;SDS011;10206;48.012;10.030;2023-09-19T00:58:13;2.50;;;2.13;;
20093;SDS011;10206;48.012;10.030;2023-09-19T01:00:39;3.13;;;2.10;;
20093;SDS011;10206;48.012;10.030;2023-09-19T01:03:09;2.13;;;1.88;;
20093;SDS011;10206;48.012;10.030;2023-09-19T01:05:38;4.53;;;1.90;;
20093;SDS011;10206;48.012;10.030;2023-09-19T01:08:05;5.27;;;2.33;;
20093;SDS011;10206;48.012;10.030;2023-09-19T01:10:31;4.27;;;2.20;;
20093;SDS011;10206;48.012;10.030;2023-09-19T01:13:18;4.70;;;2.30;;
20093;SDS011;10206;48.012;10.030;2023-09-19T01:19:03;3.63;;;2.22;;
20093;SDS011;10206;48.012;10.030;2023-09-19T01:21:59;4.90;;;2.53;;
20093;SDS011;10206;48.012;10.030;2023-09-19T01:30:39;4.40;;;2.10;;
20093;SDS011;10206;48.012;10.030;2023-09-19T01:33:08;3.00;;;2.30;;
20093;SDS011;10206;48.012;10.030;2023-09-19T01:35:39;2.80;;;2.30;;
20093;SDS011;10206;48.012;10.030;2023-09-19T01:38:06;3.60;;;2.40;;
20093;SDS011;10206;48.012;10.030;2023-09-19T01:40:43;2.75;;;2.53;;
20093;SDS011;10206;48.012;10.030;2023-09-19T01:43:17;3.33;;;2.33;;
20093;SDS011;10206;48.012;10.030;2023-09-19T01:46:03;3.33;;;2.10;;
20093;SDS011;10206;48.012;10.030;2023-09-19T01:51:39;3.30;;;2.15;;
20093;SDS011;10206;48.012;10.030;2023-09-19T01:54:18;2.72;;;2.05;;
20093;SDS011;10206;48.012;10.030;2023-09-19T01:56:57;4.15;;;2.38;;
20093;SDS011;10206;48.012;10.030;2023-09-19T01:59:50;4.83;;;2.70;;
20093;SDS011;10206;48.012;10.030;2023-09-19T02:02:22;3.35;;;2.28;;
20093;SDS011;10206;48.012;10.030;2023-09-19T02:04:50;2.97;;;2.30;;
20093;SDS011;10206;48.012;10.030;2023-09-19T02:07:16;3.42;;;2.40;;
20093;SDS011;10206;48.012;10.030;2023-09-19T02:09:42;5.07;;;2.20;;
20093;SDS011;10206;48.012;10.030;2023-09-19T02:12:09;3.30;;;2.28;;
20093;SDS011;10206;48.012;10.030;2023-09-19T02:14:35;6.93;;;2.40;;
20093;SDS011;10206;48.012;10.030;2023-09-19T02:17:02;2.60;;;2.35;;
20093;SDS011;10206;48.012;10.030;2023-09-19T02:19:32;6.10;;;2.53;;
20093;SDS011;10206;48.012;10.030;2023-09-19T02:21:59;2.97;;;2.67;;
20093;SDS011;10206;48.012;10.030;2023-09-19T02:24:28;5.93;;;2.53;;
20093;SDS011;10206;48.012;10.030;2023-09-19T02:26:54;3.75;;;2.35;;
20093;SDS011;10206;48.012;10.030;2023-09-19T02:29:20;4.90;;;2.90;;
20093;SDS011;10206;48.012;10.030;2023-09-19T02:31:47;3.20;;;2.30;;
20093;SDS011;10206;48.012;10.030;2023-09-19T02:34:13;4.90;;;2.30;;
20093;SDS011;10206;48.012;10.030;2023-09-19T02:36:41;3.20;;;2.40;;
20093;SDS011;10206;48.012;10.030;2023-09-19T02:39:09;4.57;;;2.28;;
20093;SDS011;10206;48.012;10.030;2023-09-19T02:41:36;6.45;;;2.80;;
20093;SDS011;10206;48.012;10.030;2023-09-19T02:44:02;5.97;;;2.55;;
20093;SDS011;10206;48.012;10.030;2023-09-19T02:46:33;4.03;;;2.17;;
20093;SDS011;10206;48.012;10.030;2023-09-19T02:49:01;3.80;;;2.30;;
20093;SDS011;10206;48.012;10.030;2023-09-19T02:51:31;3.80;;;2.40;;
20093;SDS011;10206;48.012;10.030;2023-09-19T02:53:59;4.10;;;2.58;;
20093;SDS011;10206;48.012;10.030;2023-09-19T02:56:25;3.80;;;2.53;;
20093;SDS011;10206;48.012;10.030;2023-09-19T02:58:51;3.13;;;2.22;;
20093;SDS011;10206;48.012;10.030;2023-09-19T03:01:18;3.10;;;2.20;;
20093;SDS011;10206;48.012;10.030;2023-09-19T03:03:44;5.82;;;2.30;;
20093;SDS011;10206;48.012;10.030;2023-09-19T03:06:10;3.37;;;2.17;;
20093;SDS011;10206;48.012;10.030;2023-09-19T03:08:38;5.67;;;2.00;;
20093;SDS011;10206;48.012;10.030;2023-09-19T03:11:07;3.37;;;2.10;;
20093;SDS011;10206;48.012;10.030;2023-09-19T03:13:54;6.40;;;2.47;;
20093;SDS011;10206;48.012;10.030;2023-09-19T03:16:20;3.33;;;2.30;;
20093;SDS011;10206;48.012;10.030;2023-09-19T03:18:47;3.13;;;2.40;;
20093;SDS011;10206;48.012;10.030;2023-09-19T03:21:16;3.57;;;2.03;;
20093;SDS011;10206;48.012;10.030;2023-09-19T03:23:44;5.20;;;2.15;;
20093;SDS011;10206;48.012;10.030;2023-09-19T03:26:11;4.03;;;1.98;;
20093;SDS011;10206;48.012;10.030;2023-09-19T03:28:38;3.22;;;2.22;;
20093;SDS011;10206;48.012;10.030;2023-09-19T03:31:05;3.07;;;1.87;;
20093;SDS011;10206;48.012;10.030;2023-09-19T03:33:32;6.90;;;2.20;;
20093;SDS011;10206;48.012;10.030;2023-09-19T03:35:59;4.45;;;2.15;;
20093;SDS011;10206;48.012;10.030;2023-09-19T03:38:29;2.95;;;1.83;;
20093;SDS011;10206;48.012;10.030;2023-09-19T03:40:56;4.40;;;1.83;;
20093;SDS011;10206;48.012;10.030;2023-09-19T03:43:22;4.03;;;1.90;;
20093;SDS011;10206;48.012;10.030;2023-09-19T03:45:48;2.83;;;1.95;;
20093;SDS011;10206;48.012;10.030;2023-09-19T03:48:16;3.53;;;1.98;;
20093;SDS011;10206;48.012;10.030;2023-09-19T03:50:42;2.35;;;2.13;;
20093;SDS011;10206;48.012;10.030;2023-09-19T03:53:11;3.17;;;2.00;;
20093;SDS011;10206;48.012;10.030;2023-09-19T03:55:37;2.67;;;1.95;;
20093;SDS011;10206;48.012;10.030;2023-09-19T03:58:06;3.45;;;2.05;;
20093;SDS011;10206;48.012;10.030;2023-09-19T04:00:32;4.15;;;2.05;;
20093;SDS011;10206;48.012;10.030;2023-09-19T04:02:59;1.80;;;1.52;;
20093;SDS011;10206;48.012;10.030;2023-09-19T04:05:30;4.28;;;2.25;;
20093;SDS011;10206;48.012;10.030;2023-09-19T04:07:57;2.23;;;1.70;;
20093;SDS011;10206;48.012;10.030;2023-09-19T04:10:23;4.73;;;2.00;;
20093;SDS011;10206;48.012;10.030;2023-09-19T04:12:52;3.88;;;2.30;;
20093;SDS011;10206;48.012;10.030;2023-09-19T04:15:20;2.30;;;1.70;;
20093;SDS011;10206;48.012;10.030;2023-09-19T04:17:48;4.78;;;1.85;;
20093;SDS011;10206;48.012;10.030;2023-09-19T04:20:15;3.05;;;2.10;;
20093;SDS011;10206;48.012;10.030;2023-09-19T04:22:42;2.30;;;2.10;;
20093;SDS011;10206;48.012;10.030;2023-09-19T04:25:08;4.07;;;2.22;;
20093;SDS011;10206;48.012;10.030;2023-09-19T04:27:35;3.28;;;2.10;;
20093;SDS011;10206;48.012;10.030;2023-09-19T04:30:01;4.47;;;2.10;;
20093;SDS011;10206;48.012;10.030;2023-09-19T04:32:29;2.10;;;1.92;;
20093;SDS011;10206;48.012;10.030;2023-09-19T04:34:57;3.00;;;1.98;;
20093;SDS011;10206;48.012;10.030;2023-09-19T04:37:25;2.97;;;1.98;;
20093;SDS011;10206;48.012;10.030;2023-09-19T04:39:51;4.25;;;2.13;;
20093;SDS011;10206;48.012;10.030;2023-09-19T04:42:17;2.40;;;2.05;;
20093;SDS011;10206;48.012;10.030;2023-09-19T04:44:44;2.67;;;1.90;;
20093;SDS011;10206;48.012;10.030;2023-09-19T04:47:10;3.73;;;2.03;;
20093;SDS011;10206;48.012;10.030;2023-09-19T04:49:37;4.97;;;2.22;;
20093;SDS011;10206;48.012;10.030;2023-09-19T04:52:05;2.80;;;2.30;;
20093;SDS011;10206;48.012;10.030;2023-09-19T04:54:31;2.60;;;1.87;;
20093;SDS011;10206;48.012;10.030;2023-09-19T04:56:59;4.50;;;2.20;;
20093;SDS011;10206;48.012;10.030;2023-09-19T04:59:28;4.17;;;1.97;;
20093;SDS011;10206;48.012;10.030;2023-09-19T05:01:54;2.83;;;2.30;;
20093;SDS011;10206;48.012;10.030;2023-09-19T05:04:21;2.77;;;2.30;;
20093;SDS011;10206;48.012;10.030;2023-09-19T05:06:47;5.60;;;2.00;;
20093;SDS011;10206;48.012;10.030;2023-09-19T05:09:13;2.80;;;2.20;;
20093;SDS011;10206;48.012;10.030;2023-09-19T05:11:40;4.53;;;2.20;;
20093;SDS011;10206;48.012;10.030;2023-09-19T05:14:06;3.13;;;1.90;;
20093;SDS011;10206;48.012;10.030;2023-09-19T05:16:32;4.88;;;2.10;;
20093;SDS011;10206;48.012;10.030;2023-09-19T05:18:59;3.53;;;2.17;;
20093;SDS011;10206;48.012;10.030;2023-09-19T05:21:26;3.53;;;1.75;;
20093;SDS011;10206;48.012;10.030;2023-09-19T05:23:56;2.20;;;2.00;;
20093;SDS011;10206;48.012;10.030;2023-09-19T05:26:22;3.67;;;2.10;;
20093;SDS011;10206;48.012;10.030;2023-09-19T05:28:48;3.87;;;2.00;;
20093;SDS011;10206;48.012;10.030;2023-09-19T05:31:14;2.47;;;1.90;;
20093;SDS011;10206;48.012;10.030;2023-09-19T05:33:41;6.25;;;2.10;;
20093;SDS011;10206;48.012;10.030;2023-09-19T05:36:08;3.72;;;1.98;;
20093;SDS011;10206;48.012;10.030;2023-09-19T05:38:36;2.75;;;1.98;;
20093;SDS011;10206;48.012;10.030;2023-09-19T05:41:05;2.42;;;1.83;;
20093;SDS011;10206;48.012;10.030;2023-09-19T05:43:33;4.50;;;2.17;;
20093;SDS011;10206;48.012;10.030;2023-09-19T05:46:02;2.93;;;1.97;;
20093;SDS011;10206;48.012;10.030;2023-09-19T05:48:28;3.87;;;1.80;;
20093;SDS011;10206;48.012;10.030;2023-09-19T05:50:54;2.80;;;1.60;;
20093;SDS011;10206;48.012;10.030;2023-09-19T05:53:21;2.92;;;1.85;;
20093;SDS011;10206;48.012;10.030;2023-09-19T05:55:48;2.63;;;1.83;;
20093;SDS011;10206;48.012;10.030;2023-09-19T05:58:14;4.45;;;1.60;;
20093;SDS011;10206;48.012;10.030;2023-09-19T06:00:42;2.47;;;1.50;;
20093;SDS011;10206;48.012;10.030;2023-09-19T06:03:09;2.70;;;1.60;;
20093;SDS011;10206;48.012;10.030;2023-09-19T06:05:38;2.55;;;1.80;;
20093;SDS011;10206;48.012;10.030;2023-09-19T06:08:06;1.75;;;1.30;;
20093;SDS011;10206;48.012;10.030;2023-09-19T06:10:33;2.15;;;1.67;;
20093;SDS011;10206;48.012;10.030;2023-09-19T06:13:00;3.42;;;1.40;;
20093;SDS011;10206;48.012;10.030;2023-09-19T06:15:29;4.18;;;1.80;;
20093;SDS011;10206;48.012;10.030;2023-09-19T06:17:58;4.38;;;2.03;;
20093;SDS011;10206;48.012;10.030;2023-09-19T06:20:25;4.03;;;3.45;;
20093;SDS011;10206;48.012;10.030;2023-09-19T06:22:51;4.95;;;3.13;;
20093;SDS011;10206;48.012;10.030;2023-09-19T06:25:18;4.13;;;3.05;;
20093;SDS011;10206;48.012;10.030;2023-09-19T06:27:51;3.47;;;2.90;;
20093;SDS011;10206;48.012;10.030;2023-09-19T06:30:19;4.28;;;3.03;;
20093;SDS011;10206;48.012;10.030;2023-09-19T06:32:46;4.65;;;2.60;;
20093;SDS011;10206;48.012;10.030;2023-09-19T06:35:13;5.03;;;1.98;;
20093;SDS011;10206;48.012;10.030;2023-09-19T06:37:41;3.22;;;2.30;;
20093;SDS011;10206;48.012;10.030;2023-09-19T06:40:08;3.10;;;2.30;;
20093;SDS011;10206;48.012;10.030;2023-09-19T06:42:42;2.08;;;1.88;;
20093;SDS011;10206;48.012;10.030;2023-09-19T06:45:13;1.98;;;1.63;;
20093;SDS011;10206;48.012;10.030;2023-09-19T06:47:46;2.95;;;1.50;;
20093;SDS011;10206;48.012;10.030;2023-09-19T06:50:14;2.40;;;1.45;;
20093;SDS011;10206;48.012;10.030;2023-09-19T06:52:52;3.95;;;1.73;;
20093;SDS011;10206;48.012;10.030;2023-09-19T06:55:20;3.15;;;1.55;;
20093;SDS011;10206;48.012;10.030;2023-09-19T06:57:50;2.17;;;1.48;;
20093;SDS011;10206;48.012;10.030;2023-09-19T07:00:16;1.60;;;1.50;;
20093;SDS011;10206;48.012;10.030;2023-09-19T07:03:03;4.07;;;1.60;;
20093;SDS011;10206;48.012;10.030;2023-09-19T07:05:35;2.25;;;1.50;;
20093;SDS011;10206;48.012;10.030;2023-09-19T07:08:02;5.05;;;1.27;;
20093;SDS011;10206;48.012;10.030;2023-09-19T07:10:31;1.75;;;1.45;;
20093;SDS011;10206;48.012;10.030;2023-09-19T07:13:05;4.03;;;1.30;;
20093;SDS011;10206;48.012;10.030;2023-09-19T07:15:35;2.13;;;1.45;;
20093;SDS011;10206;48.012;10.030;2023-09-19T07:18:06;2.40;;;1.60;;
20093;SDS011;10206;48.012;10.030;2023-09-19T07:20:36;2.75;;;1.55;;
20093;SDS011;10206;48.012;10.030;2023-09-19T07:23:03;2.15;;;1.42;;
20093;SDS011;10206;48.012;10.030;2023-09-19T07:25:29;2.85;;;1.45;;
20093;SDS011;10206;48.012;10.030;2023-09-19T07:27:56;4.32;;;1.83;;
20093;SDS011;10206;48.012;10.030;2023-09-19T07:30:25;2.47;;;1.55;;
20093;SDS011;10206;48.012;10.030;2023-09-19T07:32:51;1.40;;;1.27;;
20093;SDS011;10206;48.012;10.030;2023-09-19T07:35:18;1.92;;;1.65;;
20093;SDS011;10206;48.012;10.030;2023-09-19T07:37:47;1.50;;;1.40;;
20093;SDS011;10206;48.012;10.030;2023-09-19T07:40:15;3.40;;;1.40;;
20093;SDS011;10206;48.012;10.030;2023-09-19T07:42:41;3.40;;;1.50;;
20093;SDS011;10206;48.012;10.030;2023-09-19T07:45:09;1.80;;;1.40;;
20093;SDS011;10206;48.012;10.030;2023-09-19T07:47:45;2.78;;;1.30;;
20093;SDS011;10206;48.012;10.030;2023-09-19T07:50:12;3.80;;;1.75;;
20093;SDS011;10206;48.012;10.030;2023-09-19T07:52:41;2.25;;;1.35;;
20093;SDS011;10206;48.012;10.030;2023-09-19T07:55:08;3.20;;;1.27;;
20093;SDS011;10206;48.012;10.030;2023-09-19T07:57:34;2.60;;;1.38;;
20093;SDS011;10206;48.012;10.030;2023-09-19T08:00:02;2.75;;;1.67;;
20093;SDS011;10206;48.012;10.030;2023-09-19T08:02:35;2.97;;;1.30;;
20093;SDS011;10206;48.012;10.030;2023-09-19T08:05:05;2.30;;;1.45;;
20093;SDS011;10206;48.012;10.030;2023-09-19T08:07:35;4.15;;;1.35;;
20093;SDS011;10206;48.012;10.030;2023-09-19T08:10:05;3.65;;;1.48;;
20093;SDS011;10206;48.012;10.030;2023-09-19T08:12:33;2.25;;;1.33;;
20093;SDS011;10206;48.012;10.030;2023-09-19T08:15:01;3.30;;;1.50;;
20093;SDS011;10206;48.012;10.030;2023-09-19T08:17:28;5.93;;;1.40;;
20093;SDS011;10206;48.012;10.030;2023-09-19T08:19:58;2.30;;;1.42;;
20093;SDS011;10206;48.012;10.030;2023-09-19T08:22:25;1.75;;;1.40;;
20093;SDS011;10206;48.012;10.030;2023-09-19T08:24:52;3.20;;;1.40;;
20093;SDS011;10206;48.012;10.030;2023-09-19T08:27:18;4.03;;;1.67;;
20093;SDS011;10206;48.012;10.030;2023-09-19T08:29:44;2.28;;;1.60;;
20093;SDS011;10206;48.012;10.030;2023-09-19T08:32:11;1.38;;;1.27;;
20093;SDS011;10206;48.012;10.030;2023-09-19T08:34:37;2.25;;;1.17;;
20093;SDS011;10206;48.012;10.030;2023-09-19T08:37:03;2.00;;;1.33;;
20093;SDS011;10206;48.012;10.030;2023-09-19T08:39:31;2.95;;;1.30;;
20093;SDS011;10206;48.012;10.030;2023-09-19T08:41:58;2.33;;;1.30;;
20093;SDS011;10206;48.012;10.030;2023-09-19T08:44:25;1.60;;;1.30;;
20093;SDS011;10206;48.012;10.030;2023-09-19T08:46:59;1.80;;;1.13;;
20093;SDS011;10206;48.012;10.030;2023-09-19T08:52:37;2.10;;;1.30;;
20093;SDS011;10206;48.012;10.030;2023-09-19T08:55:07;2.08;;;1.30;;
20093;SDS011;10206;48.012;10.030;2023-09-19T08:57:36;3.30;;;1.27;;
20093;SDS011;10206;48.012;10.030;2023-09-19T09:00:06;1.83;;;1.40;;
20093;SDS011;10206;48.012;10.030;2023-09-19T09:02:35;2.35;;;1.40;;
20093;SDS011;10206;48.012;10.030;2023-09-19T09:05:06;1.73;;;1.30;;
20093;SDS011;10206;48.012;10.030;2023-09-19T09:07:34;2.05;;;1.55;;
20093;SDS011;10206;48.012;10.030;2023-09-19T09:10:02;3.33;;;1.27;;
20093;SDS011;10206;48.012;10.030;2023-09-19T09:12:29;1.98;;;1.38;;
20093;SDS011;10206;48.012;10.030;2023-09-19T09:14:55;2.38;;;1.20;;
20093;SDS011;10206;48.012;10.030;2023-09-19T09:17:22;2.15;;;1.35;;
20093;SDS011;10206;48.012;10.030;2023-09-19T09:19:52;3.67;;;1.33;;
20093;SDS011;10206;48.012;10.030;2023-09-19T09:22:18;2.25;;;1.20;;
20093;SDS011;10206;48.012;10.030;2023-09-19T09:27:30;1.38;;;1.20;;
20093;SDS011;10206;48.012;10.030;2023-09-19T09:29:57;1.90;;;1.33;;
20093;SDS011;10206;48.012;10.030;2023-09-19T09:32:25;2.63;;;1.33;;
20093;SDS011;10206;48.012;10.030;2023-09-19T09:34:57;1.50;;;1.40;;
20093;SDS011;10206;48.012;10.030;2023-09-19T09:37:27;1.25;;;1.15;;
20093;SDS011;10206;48.012;10.030;2023-09-19T09:39:56;1.80;;;1.13;;
20093;SDS011;10206;48.012;10.030;2023-09-19T09:42:30;2.65;;;1.30;;
20093;SDS011;10206;48.012;10.030;2023-09-19T09:45:19;2.90;;;1.30;;
20093;SDS011;10206;48.012;10.030;2023-09-19T09:47:54;1.23;;;1.13;;
20093;SDS011;10206;48.012;10.030;2023-09-19T09:52:54;2.33;;;1.10;;
20093;SDS011;10206;48.012;10.030;2023-09-19T09:55:36;1.63;;;1.27;;
20093;SDS011;10206;48.012;10.030;2023-09-19T09:58:25;2.55;;;1.50;;
20093;SDS011;10206;48.012;10.030;2023-09-19T10:00:57;2.53;;;1.30;;
20093;SDS011;10206;48.012;10.030;2023-09-19T10:03:36;1.75;;;1.25;;
20093;SDS011;10206;48.012;10.030;2023-09-19T10:06:13;1.88;;;1.33;;
20093;SDS011;10206;48.012;10.030;2023-09-19T10:09:07;1.70;;;1.30;;
20093;SDS011;10206;48.012;10.030;2023-09-19T10:11:48;5.45;;;1.38;;
20093;SDS011;10206;48.012;10.030;2023-09-19T10:14:35;2.78;;;1.35;;
20093;SDS011;10206;48.012;10.030;2023-09-19T10:17:04;1.13;;;1.00;;
20093;SDS011;10206;48.012;10.030;2023-09-19T10:19:42;5.65;;;1.25;;
20093;SDS011;10206;48.012;10.030;2023-09-19T10:22:14;2.95;;;1.23;;
20093;SDS011;10206;48.012;10.030;2023-09-19T10:24:45;1.77;;;1.05;;
20093;SDS011;10206;48.012;10.030;2023-09-19T10:27:17;2.47;;;1.20;;
20093;SDS011;10206;48.012;10.030;2023-09-19T10:29:45;1.25;;;1.10;;
20093;SDS011;10206;48.012;10.030;2023-09-19T10:32:15;1.30;;;1.20;;
20093;SDS011;10206;48.012;10.030;2023-09-19T10:34:47;2.20;;;1.40;;
20093;SDS011;10206;48.012;10.030;2023-09-19T10:37:13;2.47;;;1.50;;
20093;SDS011;10206;48.012;10.030;2023-09-19T10:39:45;1.70;;;1.20;;
20093;SDS011;10206;48.012;10.030;2023-09-19T10:42:14;1.63;;;1.30;;
20093;SDS011;10206;48.012;10.030;2023-09-19T10:44:44;2.35;;;1.40;;
20093;SDS011;10206;48.012;10.030;2023-09-19T10:47:18;3.90;;;1.50;;
20093;SDS011;10206;48.012;10.030;2023-09-19T10:49:45;1.83;;;1.17;;
20093;SDS011;10206;48.012;10.030;2023-09-19T10:52:15;1.38;;;1.27;;
20093;SDS011;10206;48.012;10.030;2023-09-19T10:54:46;1.42;;;1.33;;
20093;SDS011;10206;48.012;10.030;2023-09-19T10:57:22;1.00;;;0.90;;
20093;SDS011;10206;48.012;10.030;2023-09-19T11:00:05;1.42;;;1.10;;
20093;SDS011;10206;48.012;10.030;2023-09-19T11:05:40;3.17;;;0.98;;
20093;SDS011;10206;48.012;10.030;2023-09-19T11:08:10;2.42;;;1.20;;
20093;SDS011;10206;48.012;10.030;2023-09-19T11:10:47;2.47;;;1.40;;
20093;SDS011;10206;48.012;10.030;2023-09-19T11:13:24;1.40;;;1.30;;
20093;SDS011;10206;48.012;10.030;2023-09-19T11:24:27;2.72;;;1.30;;
20093;SDS011;10206;48.012;10.030;2023-09-19T11:27:12;5.35;;;1.10;;
20093;SDS011;10206;48.012;10.030;2023-09-19T11:29:39;3.65;;;1.38;;
20093;SDS011;10206;48.012;10.030;2023-09-19T11:32:05;1.17;;;1.00;;
20093;SDS011;10206;48.012;10.030;2023-09-19T11:34:39;2.63;;;1.10;;
20093;SDS011;10206;48.012;10.030;2023-09-19T11:39:39;2.67;;;1.30;;
20093;SDS011;10206;48.012;10.030;2023-09-19T11:42:42;1.58;;;1.10;;
20093;SDS011;10206;48.012;10.030;2023-09-19T11:48:22;1.92;;;1.23;;
20093;SDS011;10206;48.012;10.030;2023-09-19T11:50:52;2.05;;;1.20;;
20093;SDS011;10206;48.012;10.030;2023-09-19T11:53:20;1.65;;;1.30;;
20093;SDS011;10206;48.012;10.030;2023-09-19T11:55:47;2.67;;;1.42;;
20093;SDS011;10206;48.012;10.030;2023-09-19T11:58:15;3.85;;;1.40;;
20093;SDS011;10206;48.012;10.030;2023-09-19T12:00:42;2.95;;;1.27;;
20093;SDS011;10206;48.012;10.030;2023-09-19T12:03:10;1.33;;;1.13;;
20093;SDS011;10206;48.012;10.030;2023-09-19T12:05:39;2.42;;;1.38;;
20093;SDS011;10206;48.012;10.030;2023-09-19T12:08:05;1.88;;;1.30;;
20093;SDS011;10206;48.012;10.030;2023-09-19T12:10:44;4.10;;;1.13;;
20093;SDS011;10206;48.012;10.030;2023-09-19T12:13:17;2.10;;;1.15;;
20093;SDS011;10206;48.012;10.030;2023-09-19T12:15:43;2.33;;;1.35;;
20093;SDS011;10206;48.012;10.030;2023-09-19T12:18:25;1.63;;;1.20;;
20093;SDS011;10206;48.012;10.030;2023-09-19T12:20:53;1.95;;;1.30;;
20093;SDS011;10206;48.012;10.030;2023-09-19T12:23:19;2.13;;;1.23;;
20093;SDS011;10206;48.012;10.030;2023-09-19T12:25:46;4.18;;;1.38;;
20093;SDS011;10206;48.012;10.030;2023-09-19T12:28:12;3.38;;;1.33;;
20093;SDS011;10206;48.012;10.030;2023-09-19T12:30:41;1.52;;;1.23;;
20093;SDS011;10206;48.012;10.030;2023-09-19T12:33:15;1.45;;;1.25;;
20093;SDS011;10206;48.012;10.030;2023-09-19T12:35:45;2.22;;;1.33;;
20093;SDS011;10206;48.012;10.030;2023-09-19T12:38:22;1.70;;;1.20;;
20093;SDS011;10206;48.012;10.030;2023-09-19T12:40:56;3.53;;;1.20;;
20093;SDS011;10206;48.012;10.030;2023-09-19T12:43:28;1.63;;;1.15;;
20093;SDS011;10206;48.012;10.030;2023-09-19T12:45:58;2.50;;;1.40;;
20093;SDS011;10206;48.012;10.030;2023-09-19T12:48:25;1.77;;;1.20;;
20093;SDS011;10206;48.012;10.030;2023-09-19T12:50:59;3.15;;;1.40;;
20093;SDS011;10206;48.012;10.030;2023-09-19T12:53:40;1.90;;;1.30;;
20093;SDS011;10206;48.012;10.030;2023-09-19T12:56:12;2.55;;;1.40;;
20093;SDS011;10206;48.012;10.030;2023-09-19T13:01:20;2.17;;;1.60;;
20093;SDS011;10206;48.012;10.030;2023-09-19T13:06:47;4.63;;;1.60;;
20093;SDS011;10206;48.012;10.030;2023-09-19T13:09:15;1.75;;;1.40;;
20093;SDS011;10206;48.012;10.030;2023-09-19T13:11:42;2.35;;;1.52;;
20093;SDS011;10206;48.012;10.030;2023-09-19T13:17:00;3.92;;;1.40;;
20093;SDS011;10206;48.012;10.030;2023-09-19T13:25:19;1.50;;;1.30;;
20093;SDS011;10206;48.012;10.030;2023-09-19T13:27:53;2.55;;;1.17;;
20093;SDS011;10206;48.012;10.030;2023-09-19T13:30:24;1.80;;;1.42;;
20093;SDS011;10206;48.012;10.030;2023-09-19T13:33:06;1.98;;;1.50;;
20093;SDS011;10206;48.012;10.030;2023-09-19T13:35:34;1.42;;;1.23;;
20093;SDS011;10206;48.012;10.030;2023-09-19T13:38:03;1.40;;;1.30;;
20093;SDS011;10206;48.012;10.030;2023-09-19T13:40:29;1.58;;;1.27;;
20093;SDS011;10206;48.012;10.030;2023-09-19T13:43:00;1.73;;;1.33;;
20093;SDS011;10206;48.012;10.030;2023-09-19T13:45:26;1.58;;;1.30;;
20093;SDS011;10206;48.012;10.030;2023-09-19T13:47:55;1.98;;;1.35;;
20093;SDS011;10206;48.012;10.030;2023-09-19T13:50:21;1.52;;;1.40;;
20093;SDS011;10206;48.012;10.030;2023-09-19T13:52:54;1.95;;;1.30;;
20093;SDS011;10206;48.012;10.030;2023-09-19T13:55:20;1.98;;;1.42;;
20093;SDS011;10206;48.012;10.030;2023-09-19T13:57:49;3.25;;;1.70;;
20093;SDS011;10206;48.012;10.030;2023-09-19T14:00:17;2.20;;;1.45;;
20093;SDS011;10206;48.012;10.030;2023-09-19T14:02:44;1.77;;;1.63;;
20093;SDS011;10206;48.012;10.030;2023-09-19T14:05:11;2.42;;;1.30;;
20093;SDS011;10206;48.012;10.030;2023-09-19T14:07:41;2.45;;;1.15;;
20093;SDS011;10206;48.012;10.030;2023-09-19T14:10:08;2.50;;;1.50;;
20093;SDS011;10206;48.012;10.030;2023-09-19T14:12:36;3.40;;;1.40;;
20093;SDS011;10206;48.012;10.030;2023-09-19T14:15:03;2.90;;;1.38;;
20093;SDS011;10206;48.012;10.030;2023-09-19T14:17:30;2.13;;;1.45;;
20093;SDS011;10206;48.012;10.030;2023-09-19T14:19:56;2.15;;;1.30;;
20093;SDS011;10206;48.012;10.030;2023-09-19T14:22:22;1.95;;;1.33;;
20093;SDS011;10206;48.012;10.030;2023-09-19T14:24:48;3.03;;;1.40;;
20093;SDS011;10206;48.012;10.030;2023-09-19T14:27:14;1.65;;;1.40;;
20093;SDS011;10206;48.012;10.030;2023-09-19T14:29:40;1.95;;;1.30;;
20093;SDS011;10206;48.012;10.030;2023-09-19T14:32:07;1.92;;;1.48;;
20093;SDS011;10206;48.012;10.030;2023-09-19T14:34:33;2.35;;;1.40;;
20093;SDS011;10206;48.012;10.030;2023-09-19T14:37:01;2.15;;;1.42;;
20093;SDS011;10206;48.012;10.030;2023-09-19T14:39:29;2.92;;;1.60;;
20093;SDS011;10206;48.012;10.030;2023-09-19T14:41:55;2.13;;;1.40;;
20093;SDS011;10206;48.012;10.030;2023-09-19T14:44:21;3.03;;;1.50;;
20093;SDS011;10206;48.012;10.030;2023-09-19T14:46:47;1.90;;;1.55;;
20093;SDS011;10206;48.012;10.030;2023-09-19T14:49:13;3.00;;;1.55;;
20093;SDS011;10206;48.012;10.030;2023-09-19T14:51:41;2.83;;;1.42;;
20093;SDS011;10206;48.012;10.030;2023-09-19T14:54:12;1.90;;;1.23;;
20093;SDS011;10206;48.012;10.030;2023-09-19T14:56:42;2.13;;;1.35;;
20093;SDS011;10206;48.012;10.030;2023-09-19T14:59:08;5.97;;;1.55;;
20093;SDS011;10206;48.012;10.030;2023-09-19T15:01:36;2.70;;;1.30;;
20093;SDS011;10206;48.012;10.030;2023-09-19T15:04:03;3.50;;;1.77;;
20093;SDS011;10206;48.012;10.030;2023-09-19T15:06:29;1.70;;;1.60;;
20093;SDS011;10206;48.012;10.030;2023-09-19T15:08:55;3.35;;;1.40;;
20093;SDS011;10206;48.012;10.030;2023-09-19T15:11:22;2.13;;;1.35;;
20093;SDS011;10206;48.012;10.030;2023-09-19T15:13:50;1.40;;;1.30;;
20093;SDS011;10206;48.012;10.030;2023-09-19T15:16:17;2.17;;;1.50;;
20093;SDS011;10206;48.012;10.030;2023-09-19T15:18:44;1.50;;;1.27;;
20093;SDS011;10206;48.012;10.030;2023-09-19T15:21:13;1.55;;;1.40;;
20093;SDS011;10206;48.012;10.030;2023-09-19T15:23:40;2.25;;;1.27;;
20093;SDS011;10206;48.012;10.030;2023-09-19T15:26:08;2.92;;;1.48;;
20093;SDS011;10206;48.012;10.030;2023-09-19T15:28:38;3.25;;;1.40;;
20093;SDS011;10206;48.012;10.030;2023-09-19T15:31:05;1.88;;;1.40;;
20093;SDS011;10206;48.012;10.030;2023-09-19T15:33:33;1.90;;;1.50;;
20093;SDS011;10206;48.012;10.030;2023-09-19T15:36:03;3.25;;;1.35;;
20093;SDS011;10206;48.012;10.030;2023-09-19T15:41:30;1.67;;;1.33;;